sensor_id;sensor_type;location;lat;lon;timestamp;P1;durP1;ratioP1;P2;durP2;ratioP2
46365;SDS011;32073;49.166;8.076;2022-07-06T00:00:45;3.00;;;1.10;;
46365;SDS011;32073;49.166;8.076;2022-07-06T00:04:45;1.92;;;1.00;;
46365;SDS011;32073;49.166;8.076;2022-07-06T00:08:46;1.73;;;1.00;;
46365;SDS011;32073;49.166;8.076;2022-07-06T00:12:47;1.60;;;1.00;;
46365;SDS011;32073;49.166;8.076;2022-07-06T00:16:48;1.25;;;1.08;;
46365;SDS011;32073;49.166;8.076;2022-07-06T00:20:48;2.03;;;1.10;;
46365;SDS011;32073;49.166;8.076;2022-07-06T00:24:49;2.05;;;1.20;;
46365;SDS011;32073;49.166;8.076;2022-07-06T00:28:50;1.38;;;0.88;;
46365;SDS011;32073;49.166;8.076;2022-07-06T00:32:50;2.28;;;1.20;;
46365;SDS011;32073;49.166;8.076;2022-07-06T00:36:51;2.38;;;1.30;;
46365;SDS011;32073;49.166;8.076;2022-07-06T00:40:52;2.78;;;1.70;;
46365;SDS011;32073;49.166;8.076;2022-07-06T00:44:53;2.20;;;1.00;;
46365;SDS011;32073;49.166;8.076;2022-07-06T00:48:53;1.80;;;1.00;;
46365;SDS011;32073;49.166;8.076;2022-07-06T00:52:56;3.25;;;1.10;;
46365;SDS011;32073;49.166;8.076;2022-07-06T00:57:04;1.67;;;1.30;;
46365;SDS011;32073;49.166;8.076;2022-07-06T01:01:06;3.53;;;1.23;;
46365;SDS011;32073;49.166;8.076;2022-07-06T01:05:08;2.58;;;1.50;;
46365;SDS011;32073;49.166;8.076;2022-07-06T01:09:11;3.40;;;1.50;;
46365;SDS011;32073;49.166;8.076;2022-07-06T01:13:12;3.10;;;1.52;;
46365;SDS011;32073;49.166;8.076;2022-07-06T01:17:13;2.33;;;1.35;;
46365;SDS011;32073;49.166;8.076;2022-07-06T01:21:14;6.47;;;1.60;;
46365;SDS011;32073;49.166;8.076;2022-07-06T01:25:15;8.85;;;1.70;;
46365;SDS011;32073;49.166;8.076;2022-07-06T01:29:17;3.88;;;2.05;;
46365;SDS011;32073;49.166;8.076;2022-07-06T01:33:18;4.50;;;1.52;;
46365;SDS011;32073;49.166;8.076;2022-07-06T01:37:18;2.20;;;1.40;;
46365;SDS011;32073;49.166;8.076;2022-07-06T01:41:19;3.03;;;1.45;;
46365;SDS011;32073;49.166;8.076;2022-07-06T01:45:21;3.20;;;1.42;;
46365;SDS011;32073;49.166;8.076;2022-07-06T01:49:21;1.90;;;1.17;;
46365;SDS011;32073;49.166;8.076;2022-07-06T01:53:22;1.73;;;1.23;;
46365;SDS011;32073;49.166;8.076;2022-07-06T01:57:23;2.35;;;1.35;;
46365;SDS011;32073;49.166;8.076;2022-07-06T02:01:24;3.78;;;1.35;;
46365;SDS011;32073;49.166;8.076;2022-07-06T02:05:24;2.53;;;1.25;;
46365;SDS011;32073;49.166;8.076;2022-07-06T02:09:25;3.10;;;1.38;;
46365;SDS011;32073;49.166;8.076;2022-07-06T02:13:26;3.63;;;1.35;;
46365;SDS011;32073;49.166;8.076;2022-07-06T02:17:26;1.83;;;1.35;;
46365;SDS011;32073;49.166;8.076;2022-07-06T02:21:27;1.95;;;1.30;;
46365;SDS011;32073;49.166;8.076;2022-07-06T02:25:28;2.95;;;1.35;;
46365;SDS011;32073;49.166;8.076;2022-07-06T02:29:30;2.67;;;1.25;;
46365;SDS011;32073;49.166;8.076;2022-07-06T02:33:31;1.98;;;1.20;;
46365;SDS011;32073;49.166;8.076;2022-07-06T02:37:32;2.30;;;1.35;;
46365;SDS011;32073;49.166;8.076;2022-07-06T02:41:33;1.88;;;1.27;;
46365;SDS011;32073;49.166;8.076;2022-07-06T02:45:33;1.88;;;1.00;;
46365;SDS011;32073;49.166;8.076;2022-07-06T02:49:35;3.88;;;1.10;;
46365;SDS011;32073;49.166;8.076;2022-07-06T02:53:36;3.58;;;1.20;;
46365;SDS011;32073;49.166;8.076;2022-07-06T02:57:36;3.38;;;0.90;;
46365;SDS011;32073;49.166;8.076;2022-07-06T03:01:37;3.80;;;0.95;;
46365;SDS011;32073;49.166;8.076;2022-07-06T03:05:44;2.28;;;0.85;;
46365;SDS011;32073;49.166;8.076;2022-07-06T03:09:46;3.75;;;1.23;;
46365;SDS011;32073;49.166;8.076;2022-07-06T03:13:47;2.35;;;0.90;;
46365;SDS011;32073;49.166;8.076;2022-07-06T03:17:48;2.17;;;0.80;;
46365;SDS011;32073;49.166;8.076;2022-07-06T03:21:49;3.70;;;0.88;;
46365;SDS011;32073;49.166;8.076;2022-07-06T03:25:50;3.03;;;1.00;;
46365;SDS011;32073;49.166;8.076;2022-07-06T03:29:51;2.45;;;0.90;;
46365;SDS011;32073;49.166;8.076;2022-07-06T03:33:52;1.83;;;1.20;;
46365;SDS011;32073;49.166;8.076;2022-07-06T03:37:52;1.75;;;0.80;;
46365;SDS011;32073;49.166;8.076;2022-07-06T03:41:53;8.35;;;1.30;;
46365;SDS011;32073;49.166;8.076;2022-07-06T03:45:54;2.33;;;1.08;;
46365;SDS011;32073;49.166;8.076;2022-07-06T03:49:55;2.50;;;1.13;;
46365;SDS011;32073;49.166;8.076;2022-07-06T03:53:56;2.75;;;0.90;;
46365;SDS011;32073;49.166;8.076;2022-07-06T03:57:57;1.48;;;0.90;;
46365;SDS011;32073;49.166;8.076;2022-07-06T04:12:29;1.35;;;0.75;;
46365;SDS011;32073;49.166;8.076;2022-07-06T04:16:30;1.63;;;0.75;;
46365;SDS011;32073;49.166;8.076;2022-07-06T04:20:31;2.55;;;0.73;;
46365;SDS011;32073;49.166;8.076;2022-07-06T04:24:31;3.67;;;0.90;;
46365;SDS011;32073;49.166;8.076;2022-07-06T04:28:32;4.28;;;1.00;;
46365;SDS011;32073;49.166;8.076;2022-07-06T04:32:33;3.50;;;1.08;;
46365;SDS011;32073;49.166;8.076;2022-07-06T04:36:35;2.45;;;1.00;;
46365;SDS011;32073;49.166;8.076;2022-07-06T04:40:35;2.13;;;0.93;;
46365;SDS011;32073;49.166;8.076;2022-07-06T04:44:36;2.92;;;1.08;;
46365;SDS011;32073;49.166;8.076;2022-07-06T04:48:37;3.67;;;1.00;;
46365;SDS011;32073;49.166;8.076;2022-07-06T04:52:39;3.38;;;1.20;;
46365;SDS011;32073;49.166;8.076;2022-07-06T04:56:39;1.95;;;0.60;;
46365;SDS011;32073;49.166;8.076;2022-07-06T05:00:40;4.50;;;1.38;;
46365;SDS011;32073;49.166;8.076;2022-07-06T05:04:41;2.13;;;1.05;;
46365;SDS011;32073;49.166;8.076;2022-07-06T05:08:41;1.88;;;1.00;;
46365;SDS011;32073;49.166;8.076;2022-07-06T05:12:42;2.00;;;0.88;;
46365;SDS011;32073;49.166;8.076;2022-07-06T05:16:43;2.58;;;1.00;;
46365;SDS011;32073;49.166;8.076;2022-07-06T05:20:43;1.40;;;1.08;;
46365;SDS011;32073;49.166;8.076;2022-07-06T05:24:44;1.92;;;0.93;;
46365;SDS011;32073;49.166;8.076;2022-07-06T05:28:45;2.55;;;1.30;;
46365;SDS011;32073;49.166;8.076;2022-07-06T05:32:45;0.75;;;0.70;;
46365;SDS011;32073;49.166;8.076;2022-07-06T05:36:46;2.85;;;1.05;;
46365;SDS011;32073;49.166;8.076;2022-07-06T05:40:47;1.48;;;0.85;;
46365;SDS011;32073;49.166;8.076;2022-07-06T05:44:47;1.38;;;0.60;;
46365;SDS011;32073;49.166;8.076;2022-07-06T05:48:48;2.10;;;0.88;;
46365;SDS011;32073;49.166;8.076;2022-07-06T05:53:07;1.50;;;0.80;;
46365;SDS011;32073;49.166;8.076;2022-07-06T05:57:08;3.28;;;1.00;;
46365;SDS011;32073;49.166;8.076;2022-07-06T06:01:09;1.42;;;0.82;;
46365;SDS011;32073;49.166;8.076;2022-07-06T06:05:10;3.42;;;1.02;;
46365;SDS011;32073;49.166;8.076;2022-07-06T06:09:11;3.22;;;0.73;;
46365;SDS011;32073;49.166;8.076;2022-07-06T06:13:14;2.92;;;0.82;;
46365;SDS011;32073;49.166;8.076;2022-07-06T06:17:14;2.15;;;0.80;;
46365;SDS011;32073;49.166;8.076;2022-07-06T06:21:16;2.25;;;1.23;;
46365;SDS011;32073;49.166;8.076;2022-07-06T06:25:18;2.20;;;0.70;;
46365;SDS011;32073;49.166;8.076;2022-07-06T06:29:30;1.35;;;0.88;;
46365;SDS011;32073;49.166;8.076;2022-07-06T06:33:31;1.55;;;0.90;;
46365;SDS011;32073;49.166;8.076;2022-07-06T06:37:32;2.97;;;0.80;;
46365;SDS011;32073;49.166;8.076;2022-07-06T06:41:34;2.08;;;0.93;;
46365;SDS011;32073;49.166;8.076;2022-07-06T06:45:34;3.28;;;0.70;;
46365;SDS011;32073;49.166;8.076;2022-07-06T06:49:35;1.88;;;1.00;;
46365;SDS011;32073;49.166;8.076;2022-07-06T06:53:36;2.95;;;0.95;;
46365;SDS011;32073;49.166;8.076;2022-07-06T06:57:37;1.65;;;1.08;;
46365;SDS011;32073;49.166;8.076;2022-07-06T07:01:38;4.20;;;1.00;;
46365;SDS011;32073;49.166;8.076;2022-07-06T07:05:38;5.88;;;1.40;;
46365;SDS011;32073;49.166;8.076;2022-07-06T07:09:39;2.13;;;0.90;;
46365;SDS011;32073;49.166;8.076;2022-07-06T07:13:40;3.25;;;1.20;;
46365;SDS011;32073;49.166;8.076;2022-07-06T07:17:40;1.75;;;0.80;;
46365;SDS011;32073;49.166;8.076;2022-07-06T07:21:41;1.95;;;0.88;;
46365;SDS011;32073;49.166;8.076;2022-07-06T07:25:42;3.08;;;1.00;;
46365;SDS011;32073;49.166;8.076;2022-07-06T07:29:43;2.17;;;1.20;;
46365;SDS011;32073;49.166;8.076;2022-07-06T07:33:43;2.33;;;0.90;;
46365;SDS011;32073;49.166;8.076;2022-07-06T07:37:44;3.00;;;1.05;;
46365;SDS011;32073;49.166;8.076;2022-07-06T07:41:45;3.50;;;0.82;;
46365;SDS011;32073;49.166;8.076;2022-07-06T07:45:46;2.75;;;0.95;;
46365;SDS011;32073;49.166;8.076;2022-07-06T07:49:47;1.27;;;0.73;;
46365;SDS011;32073;49.166;8.076;2022-07-06T07:53:48;4.55;;;1.13;;
46365;SDS011;32073;49.166;8.076;2022-07-06T07:57:48;1.80;;;0.93;;
46365;SDS011;32073;49.166;8.076;2022-07-06T08:01:49;3.25;;;0.95;;
46365;SDS011;32073;49.166;8.076;2022-07-06T08:05:50;2.50;;;0.75;;
46365;SDS011;32073;49.166;8.076;2022-07-06T08:09:50;2.42;;;1.08;;
46365;SDS011;32073;49.166;8.076;2022-07-06T08:13:51;2.13;;;1.35;;
46365;SDS011;32073;49.166;8.076;2022-07-06T08:17:52;2.22;;;1.00;;
46365;SDS011;32073;49.166;8.076;2022-07-06T08:21:53;2.50;;;1.23;;
46365;SDS011;32073;49.166;8.076;2022-07-06T08:25:53;1.70;;;0.77;;
46365;SDS011;32073;49.166;8.076;2022-07-06T08:29:54;3.22;;;1.20;;
46365;SDS011;32073;49.166;8.076;2022-07-06T08:33:55;2.13;;;1.13;;
46365;SDS011;32073;49.166;8.076;2022-07-06T08:37:56;5.05;;;1.00;;
46365;SDS011;32073;49.166;8.076;2022-07-06T08:41:57;2.55;;;1.20;;
46365;SDS011;32073;49.166;8.076;2022-07-06T08:46:00;0.90;;;0.80;;
46365;SDS011;32073;49.166;8.076;2022-07-06T08:50:02;5.30;;;1.00;;
46365;SDS011;32073;49.166;8.076;2022-07-06T08:54:04;2.25;;;0.90;;
46365;SDS011;32073;49.166;8.076;2022-07-06T08:58:06;2.33;;;1.10;;
46365;SDS011;32073;49.166;8.076;2022-07-06T09:02:09;2.70;;;1.10;;
46365;SDS011;32073;49.166;8.076;2022-07-06T09:06:11;3.75;;;1.25;;
46365;SDS011;32073;49.166;8.076;2022-07-06T09:10:19;2.53;;;0.93;;
46365;SDS011;32073;49.166;8.076;2022-07-06T09:14:22;4.88;;;1.00;;
46365;SDS011;32073;49.166;8.076;2022-07-06T09:18:22;2.00;;;1.00;;
46365;SDS011;32073;49.166;8.076;2022-07-06T09:26:31;2.72;;;1.00;;
46365;SDS011;32073;49.166;8.076;2022-07-06T09:30:32;1.75;;;1.00;;
46365;SDS011;32073;49.166;8.076;2022-07-06T09:34:42;1.83;;;0.93;;
46365;SDS011;32073;49.166;8.076;2022-07-06T09:38:46;2.03;;;0.65;;
46365;SDS011;32073;49.166;8.076;2022-07-06T09:42:47;1.73;;;0.80;;
46365;SDS011;32073;49.166;8.076;2022-07-06T09:46:48;3.17;;;0.95;;
46365;SDS011;32073;49.166;8.076;2022-07-06T09:50:51;4.97;;;1.10;;
46365;SDS011;32073;49.166;8.076;2022-07-06T09:54:54;3.58;;;1.08;;
46365;SDS011;32073;49.166;8.076;2022-07-06T09:58:55;1.90;;;0.80;;
46365;SDS011;32073;49.166;8.076;2022-07-06T10:02:55;3.08;;;0.90;;
46365;SDS011;32073;49.166;8.076;2022-07-06T10:06:57;1.75;;;0.80;;
46365;SDS011;32073;49.166;8.076;2022-07-06T10:10:59;1.27;;;0.68;;
46365;SDS011;32073;49.166;8.076;2022-07-06T10:19:04;1.33;;;0.60;;
46365;SDS011;32073;49.166;8.076;2022-07-06T10:23:07;2.53;;;0.70;;
46365;SDS011;32073;49.166;8.076;2022-07-06T10:27:09;2.78;;;0.90;;
46365;SDS011;32073;49.166;8.076;2022-07-06T10:31:13;1.70;;;0.80;;
46365;SDS011;32073;49.166;8.076;2022-07-06T10:35:17;0.75;;;0.60;;
46365;SDS011;32073;49.166;8.076;2022-07-06T10:39:38;2.72;;;1.02;;
46365;SDS011;32073;49.166;8.076;2022-07-06T10:43:57;1.33;;;0.63;;
46365;SDS011;32073;49.166;8.076;2022-07-06T10:52:16;1.13;;;0.60;;
46365;SDS011;32073;49.166;8.076;2022-07-06T10:56:17;3.45;;;1.10;;
46365;SDS011;32073;49.166;8.076;2022-07-06T11:00:18;1.60;;;0.75;;
46365;SDS011;32073;49.166;8.076;2022-07-06T11:04:18;2.40;;;0.70;;
46365;SDS011;32073;49.166;8.076;2022-07-06T11:08:50;0.88;;;0.80;;
46365;SDS011;32073;49.166;8.076;2022-07-06T11:12:59;2.75;;;0.90;;
46365;SDS011;32073;49.166;8.076;2022-07-06T11:17:02;2.95;;;0.82;;
46365;SDS011;32073;49.166;8.076;2022-07-06T11:21:17;1.50;;;0.70;;
46365;SDS011;32073;49.166;8.076;2022-07-06T11:25:22;1.23;;;0.70;;
46365;SDS011;32073;49.166;8.076;2022-07-06T11:29:23;2.58;;;0.82;;
46365;SDS011;32073;49.166;8.076;2022-07-06T11:33:29;1.88;;;0.60;;
46365;SDS011;32073;49.166;8.076;2022-07-06T11:37:31;1.02;;;0.60;;
46365;SDS011;32073;49.166;8.076;2022-07-06T11:41:32;1.80;;;0.50;;
46365;SDS011;32073;49.166;8.076;2022-07-06T11:45:33;0.73;;;0.52;;
46365;SDS011;32073;49.166;8.076;2022-07-06T11:49:35;1.25;;;0.63;;
46365;SDS011;32073;49.166;8.076;2022-07-06T11:53:42;2.00;;;0.60;;
46365;SDS011;32073;49.166;8.076;2022-07-06T11:57:47;1.10;;;0.65;;
46365;SDS011;32073;49.166;8.076;2022-07-06T12:01:48;0.82;;;0.60;;
46365;SDS011;32073;49.166;8.076;2022-07-06T12:05:49;0.82;;;0.55;;
46365;SDS011;32073;49.166;8.076;2022-07-06T12:09:50;0.63;;;0.35;;
46365;SDS011;32073;49.166;8.076;2022-07-06T12:13:51;0.80;;;0.50;;
46365;SDS011;32073;49.166;8.076;2022-07-06T12:18:03;0.57;;;0.43;;
46365;SDS011;32073;49.166;8.076;2022-07-06T12:22:04;2.15;;;0.57;;
46365;SDS011;32073;49.166;8.076;2022-07-06T12:26:07;0.73;;;0.50;;
46365;SDS011;32073;49.166;8.076;2022-07-06T12:30:09;0.50;;;0.40;;
46365;SDS011;32073;49.166;8.076;2022-07-06T12:34:15;1.40;;;0.65;;
46365;SDS011;32073;49.166;8.076;2022-07-06T12:38:25;1.23;;;0.55;;
46365;SDS011;32073;49.166;8.076;2022-07-06T12:42:27;0.50;;;0.40;;
46365;SDS011;32073;49.166;8.076;2022-07-06T12:46:29;1.48;;;0.85;;
46365;SDS011;32073;49.166;8.076;2022-07-06T12:50:36;2.03;;;0.60;;
46365;SDS011;32073;49.166;8.076;2022-07-06T12:58:58;1.52;;;0.80;;
46365;SDS011;32073;49.166;8.076;2022-07-06T13:03:00;1.40;;;0.60;;
46365;SDS011;32073;49.166;8.076;2022-07-06T13:07:02;0.93;;;0.63;;
46365;SDS011;32073;49.166;8.076;2022-07-06T13:11:04;0.50;;;0.43;;
46365;SDS011;32073;49.166;8.076;2022-07-06T13:15:05;1.05;;;0.52;;
46365;SDS011;32073;49.166;8.076;2022-07-06T13:19:07;0.95;;;0.50;;
46365;SDS011;32073;49.166;8.076;2022-07-06T13:23:09;1.55;;;0.52;;
46365;SDS011;32073;49.166;8.076;2022-07-06T13:27:09;2.65;;;0.50;;
46365;SDS011;32073;49.166;8.076;2022-07-06T13:31:11;0.73;;;0.38;;
46365;SDS011;32073;49.166;8.076;2022-07-06T13:35:12;1.38;;;0.68;;
46365;SDS011;32073;49.166;8.076;2022-07-06T13:39:13;2.13;;;0.60;;
46365;SDS011;32073;49.166;8.076;2022-07-06T13:43:13;2.00;;;0.50;;
46365;SDS011;32073;49.166;8.076;2022-07-06T13:47:14;1.15;;;0.50;;
46365;SDS011;32073;49.166;8.076;2022-07-06T13:51:15;0.93;;;0.40;;
46365;SDS011;32073;49.166;8.076;2022-07-06T13:55:15;1.60;;;0.57;;
46365;SDS011;32073;49.166;8.076;2022-07-06T13:59:16;1.25;;;0.70;;
46365;SDS011;32073;49.166;8.076;2022-07-06T14:03:17;0.60;;;0.40;;
46365;SDS011;32073;49.166;8.076;2022-07-06T14:07:17;1.38;;;0.60;;
46365;SDS011;32073;49.166;8.076;2022-07-06T14:11:19;0.90;;;0.70;;
46365;SDS011;32073;49.166;8.076;2022-07-06T14:15:20;3.85;;;0.70;;
46365;SDS011;32073;49.166;8.076;2022-07-06T14:19:21;1.63;;;0.80;;
46365;SDS011;32073;49.166;8.076;2022-07-06T14:23:22;0.63;;;0.60;;
46365;SDS011;32073;49.166;8.076;2022-07-06T14:27:23;0.73;;;0.60;;
46365;SDS011;32073;49.166;8.076;2022-07-06T14:31:24;1.00;;;0.80;;
46365;SDS011;32073;49.166;8.076;2022-07-06T14:35:25;0.75;;;0.50;;
46365;SDS011;32073;49.166;8.076;2022-07-06T14:39:25;1.52;;;0.73;;
46365;SDS011;32073;49.166;8.076;2022-07-06T14:43:26;3.75;;;0.60;;
46365;SDS011;32073;49.166;8.076;2022-07-06T14:47:27;2.15;;;0.50;;
46365;SDS011;32073;49.166;8.076;2022-07-06T14:51:27;1.52;;;0.68;;
46365;SDS011;32073;49.166;8.076;2022-07-06T14:55:28;1.02;;;0.50;;
46365;SDS011;32073;49.166;8.076;2022-07-06T14:59:29;1.02;;;0.43;;
46365;SDS011;32073;49.166;8.076;2022-07-06T15:03:32;0.80;;;0.43;;
46365;SDS011;32073;49.166;8.076;2022-07-06T15:07:33;2.40;;;0.50;;
46365;SDS011;32073;49.166;8.076;2022-07-06T15:11:34;2.25;;;0.70;;
46365;SDS011;32073;49.166;8.076;2022-07-06T15:15:35;1.17;;;0.68;;
46365;SDS011;32073;49.166;8.076;2022-07-06T15:19:36;1.35;;;0.63;;
46365;SDS011;32073;49.166;8.076;2022-07-06T15:23:37;2.45;;;0.60;;
46365;SDS011;32073;49.166;8.076;2022-07-06T15:27:38;0.82;;;0.52;;
46365;SDS011;32073;49.166;8.076;2022-07-06T15:31:38;1.20;;;0.60;;
46365;SDS011;32073;49.166;8.076;2022-07-06T15:35:39;1.77;;;0.60;;
46365;SDS011;32073;49.166;8.076;2022-07-06T15:39:40;1.42;;;0.47;;
46365;SDS011;32073;49.166;8.076;2022-07-06T15:43:40;3.97;;;0.70;;
46365;SDS011;32073;49.166;8.076;2022-07-06T15:47:41;1.00;;;0.55;;
46365;SDS011;32073;49.166;8.076;2022-07-06T15:51:42;1.42;;;0.43;;
46365;SDS011;32073;49.166;8.076;2022-07-06T15:55:42;2.65;;;0.55;;
46365;SDS011;32073;49.166;8.076;2022-07-06T15:59:44;1.70;;;0.50;;
46365;SDS011;32073;49.166;8.076;2022-07-06T16:03:44;0.75;;;0.50;;
46365;SDS011;32073;49.166;8.076;2022-07-06T16:07:45;3.05;;;0.40;;
46365;SDS011;32073;49.166;8.076;2022-07-06T16:11:46;3.25;;;0.50;;
46365;SDS011;32073;49.166;8.076;2022-07-06T16:15:47;1.35;;;0.50;;
46365;SDS011;32073;49.166;8.076;2022-07-06T16:19:48;0.63;;;0.40;;
46365;SDS011;32073;49.166;8.076;2022-07-06T16:23:48;0.80;;;0.50;;
46365;SDS011;32073;49.166;8.076;2022-07-06T16:27:50;0.90;;;0.60;;
46365;SDS011;32073;49.166;8.076;2022-07-06T16:31:51;2.42;;;0.70;;
46365;SDS011;32073;49.166;8.076;2022-07-06T16:35:52;0.65;;;0.30;;
46365;SDS011;32073;49.166;8.076;2022-07-06T16:39:53;1.75;;;0.65;;
46365;SDS011;32073;49.166;8.076;2022-07-06T16:43:54;2.28;;;0.50;;
46365;SDS011;32073;49.166;8.076;2022-07-06T16:47:54;1.63;;;0.57;;
46365;SDS011;32073;49.166;8.076;2022-07-06T16:51:55;1.02;;;0.40;;
46365;SDS011;32073;49.166;8.076;2022-07-06T16:55:56;2.15;;;0.70;;
46365;SDS011;32073;49.166;8.076;2022-07-06T16:59:57;1.45;;;0.55;;
46365;SDS011;32073;49.166;8.076;2022-07-06T17:03:57;0.85;;;0.40;;
46365;SDS011;32073;49.166;8.076;2022-07-06T17:07:58;1.35;;;0.50;;
46365;SDS011;32073;49.166;8.076;2022-07-06T17:11:59;1.23;;;0.70;;
46365;SDS011;32073;49.166;8.076;2022-07-06T17:15:59;4.30;;;0.88;;
46365;SDS011;32073;49.166;8.076;2022-07-06T17:20:00;1.40;;;0.75;;
46365;SDS011;32073;49.166;8.076;2022-07-06T17:24:01;1.42;;;0.40;;
46365;SDS011;32073;49.166;8.076;2022-07-06T17:28:02;1.05;;;0.47;;
46365;SDS011;32073;49.166;8.076;2022-07-06T17:32:03;1.00;;;0.50;;
46365;SDS011;32073;49.166;8.076;2022-07-06T17:36:05;0.75;;;0.40;;
46365;SDS011;32073;49.166;8.076;2022-07-06T17:40:06;1.88;;;0.55;;
46365;SDS011;32073;49.166;8.076;2022-07-06T17:44:08;1.23;;;0.40;;
46365;SDS011;32073;49.166;8.076;2022-07-06T17:48:08;1.70;;;0.40;;
46365;SDS011;32073;49.166;8.076;2022-07-06T17:52:09;0.55;;;0.35;;
46365;SDS011;32073;49.166;8.076;2022-07-06T17:56:14;1.85;;;0.50;;
46365;SDS011;32073;49.166;8.076;2022-07-06T18:00:16;2.47;;;0.45;;
46365;SDS011;32073;49.166;8.076;2022-07-06T18:04:17;0.90;;;0.52;;
46365;SDS011;32073;49.166;8.076;2022-07-06T18:08:18;1.42;;;0.40;;
46365;SDS011;32073;49.166;8.076;2022-07-06T18:12:18;0.68;;;0.30;;
46365;SDS011;32073;49.166;8.076;2022-07-06T18:16:19;3.05;;;0.35;;
46365;SDS011;32073;49.166;8.076;2022-07-06T18:20:20;1.15;;;0.40;;
46365;SDS011;32073;49.166;8.076;2022-07-06T18:24:21;0.88;;;0.47;;
46365;SDS011;32073;49.166;8.076;2022-07-06T18:28:21;0.68;;;0.30;;
46365;SDS011;32073;49.166;8.076;2022-07-06T18:32:23;1.48;;;0.38;;
46365;SDS011;32073;49.166;8.076;2022-07-06T18:36:24;0.98;;;0.40;;
46365;SDS011;32073;49.166;8.076;2022-07-06T18:40:30;1.35;;;0.45;;
46365;SDS011;32073;49.166;8.076;2022-07-06T18:44:32;1.42;;;0.65;;
46365;SDS011;32073;49.166;8.076;2022-07-06T18:48:32;1.58;;;0.40;;
46365;SDS011;32073;49.166;8.076;2022-07-06T18:52:33;1.75;;;0.20;;
46365;SDS011;32073;49.166;8.076;2022-07-06T18:56:34;0.32;;;0.20;;
46365;SDS011;32073;49.166;8.076;2022-07-06T19:00:35;2.50;;;0.88;;
46365;SDS011;32073;49.166;8.076;2022-07-06T19:04:36;2.30;;;0.30;;
46365;SDS011;32073;49.166;8.076;2022-07-06T19:08:37;1.70;;;0.40;;
46365;SDS011;32073;49.166;8.076;2022-07-06T19:12:38;1.30;;;0.30;;
46365;SDS011;32073;49.166;8.076;2022-07-06T19:16:39;0.60;;;0.40;;
46365;SDS011;32073;49.166;8.076;2022-07-06T19:20:40;0.20;;;0.20;;
46365;SDS011;32073;49.166;8.076;2022-07-06T19:24:41;1.48;;;0.40;;
46365;SDS011;32073;49.166;8.076;2022-07-06T19:28:42;1.25;;;0.68;;
46365;SDS011;32073;49.166;8.076;2022-07-06T19:32:46;1.25;;;0.50;;
46365;SDS011;32073;49.166;8.076;2022-07-06T19:36:47;0.52;;;0.40;;
46365;SDS011;32073;49.166;8.076;2022-07-06T19:40:48;0.68;;;0.40;;
46365;SDS011;32073;49.166;8.076;2022-07-06T19:44:49;0.57;;;0.45;;
46365;SDS011;32073;49.166;8.076;2022-07-06T19:48:49;0.70;;;0.43;;
46365;SDS011;32073;49.166;8.076;2022-07-06T19:52:50;1.63;;;0.60;;
46365;SDS011;32073;49.166;8.076;2022-07-06T19:56:51;3.03;;;0.45;;
46365;SDS011;32073;49.166;8.076;2022-07-06T20:00:52;1.40;;;0.43;;
46365;SDS011;32073;49.166;8.076;2022-07-06T20:04:57;0.75;;;0.30;;
46365;SDS011;32073;49.166;8.076;2022-07-06T20:08:59;1.50;;;0.40;;
46365;SDS011;32073;49.166;8.076;2022-07-06T20:13:00;2.10;;;0.50;;
46365;SDS011;32073;49.166;8.076;2022-07-06T20:17:04;0.68;;;0.30;;
46365;SDS011;32073;49.166;8.076;2022-07-06T20:21:05;0.80;;;0.10;;
46365;SDS011;32073;49.166;8.076;2022-07-06T20:25:06;1.77;;;0.47;;
46365;SDS011;32073;49.166;8.076;2022-07-06T20:29:13;1.35;;;0.50;;
46365;SDS011;32073;49.166;8.076;2022-07-06T20:33:15;0.60;;;0.40;;
46365;SDS011;32073;49.166;8.076;2022-07-06T20:37:16;1.65;;;0.40;;
46365;SDS011;32073;49.166;8.076;2022-07-06T20:41:17;1.08;;;0.40;;
46365;SDS011;32073;49.166;8.076;2022-07-06T20:45:20;0.47;;;0.30;;
46365;SDS011;32073;49.166;8.076;2022-07-06T20:49:25;0.63;;;0.45;;
46365;SDS011;32073;49.166;8.076;2022-07-06T20:53:26;0.40;;;0.30;;
46365;SDS011;32073;49.166;8.076;2022-07-06T20:57:27;0.73;;;0.30;;
46365;SDS011;32073;49.166;8.076;2022-07-06T21:01:28;0.60;;;0.40;;
46365;SDS011;32073;49.166;8.076;2022-07-06T21:05:29;0.82;;;0.40;;
46365;SDS011;32073;49.166;8.076;2022-07-06T21:09:31;1.13;;;0.20;;
46365;SDS011;32073;49.166;8.076;2022-07-06T21:13:32;1.08;;;0.43;;
46365;SDS011;32073;49.166;8.076;2022-07-06T21:17:33;1.20;;;0.45;;
46365;SDS011;32073;49.166;8.076;2022-07-06T21:21:34;0.22;;;0.20;;
46365;SDS011;32073;49.166;8.076;2022-07-06T21:25:35;1.02;;;0.20;;
46365;SDS011;32073;49.166;8.076;2022-07-06T21:29:36;0.90;;;0.50;;
46365;SDS011;32073;49.166;8.076;2022-07-06T21:33:37;1.23;;;0.40;;
46365;SDS011;32073;49.166;8.076;2022-07-06T21:37:41;0.40;;;0.40;;
46365;SDS011;32073;49.166;8.076;2022-07-06T21:41:41;0.65;;;0.38;;
46365;SDS011;32073;49.166;8.076;2022-07-06T21:45:42;0.50;;;0.40;;
46365;SDS011;32073;49.166;8.076;2022-07-06T21:49:43;2.70;;;0.50;;
46365;SDS011;32073;49.166;8.076;2022-07-06T21:53:44;1.55;;;0.47;;
46365;SDS011;32073;49.166;8.076;2022-07-06T21:57:45;0.28;;;0.28;;
46365;SDS011;32073;49.166;8.076;2022-07-06T22:01:45;1.17;;;0.47;;
46365;SDS011;32073;49.166;8.076;2022-07-06T22:05:46;0.40;;;0.32;;
46365;SDS011;32073;49.166;8.076;2022-07-06T22:09:47;0.65;;;0.30;;
46365;SDS011;32073;49.166;8.076;2022-07-06T22:13:48;0.60;;;0.43;;
46365;SDS011;32073;49.166;8.076;2022-07-06T22:17:48;4.78;;;0.50;;
46365;SDS011;32073;49.166;8.076;2022-07-06T22:21:51;1.63;;;0.70;;
46365;SDS011;32073;49.166;8.076;2022-07-06T22:25:51;0.68;;;0.55;;
46365;SDS011;32073;49.166;8.076;2022-07-06T22:29:52;1.38;;;0.45;;
46365;SDS011;32073;49.166;8.076;2022-07-06T22:33:53;1.88;;;0.47;;
46365;SDS011;32073;49.166;8.076;2022-07-06T22:37:54;0.40;;;0.32;;
46365;SDS011;32073;49.166;8.076;2022-07-06T22:41:54;1.05;;;0.65;;
46365;SDS011;32073;49.166;8.076;2022-07-06T22:45:55;0.70;;;0.40;;
46365;SDS011;32073;49.166;8.076;2022-07-06T22:49:56;0.88;;;0.30;;
46365;SDS011;32073;49.166;8.076;2022-07-06T22:53:57;0.60;;;0.47;;
46365;SDS011;32073;49.166;8.076;2022-07-06T22:57:58;1.80;;;0.70;;
46365;SDS011;32073;49.166;8.076;2022-07-06T23:01:59;1.20;;;0.50;;
46365;SDS011;32073;49.166;8.076;2022-07-06T23:05:59;1.08;;;0.40;;
46365;SDS011;32073;49.166;8.076;2022-07-06T23:10:00;2.05;;;0.50;;
46365;SDS011;32073;49.166;8.076;2022-07-06T23:14:00;0.60;;;0.30;;
46365;SDS011;32073;49.166;8.076;2022-07-06T23:18:01;0.73;;;0.50;;
46365;SDS011;32073;49.166;8.076;2022-07-06T23:22:04;0.57;;;0.40;;
46365;SDS011;32073;49.166;8.076;2022-07-06T23:26:05;2.08;;;0.57;;
46365;SDS011;32073;49.166;8.076;2022-07-06T23:30:05;0.30;;;0.30;;
46365;SDS011;32073;49.166;8.076;2022-07-06T23:34:06;0.73;;;0.50;;
46365;SDS011;32073;49.166;8.076;2022-07-06T23:38:07;0.82;;;0.40;;
46365;SDS011;32073;49.166;8.076;2022-07-06T23:42:08;1.00;;;0.40;;
46365;SDS011;32073;49.166;8.076;2022-07-06T23:46:09;2.95;;;0.40;;
46365;SDS011;32073;49.166;8.076;2022-07-06T23:50:09;0.73;;;0.50;;
46365;SDS011;32073;49.166;8.076;2022-07-06T23:54:11;0.73;;;0.38;;
46365;SDS011;32073;49.166;8.076;2022-07-06T23:58:12;0.90;;;0.45;;
